createdAt,value
2022-11-26T00:03:29.297Z,32.46
2022-11-26T00:08:36.466Z,32.45
2022-11-26T00:13:43.664Z,32.41
2022-11-26T00:18:50.855Z,32.44
2022-11-26T00:23:58.093Z,32.33
2022-11-26T00:29:05.267Z,32.40
2022-11-26T00:34:12.534Z,32.37
2022-11-26T00:39:19.702Z,32.31
2022-11-26T00:44:26.930Z,32.21
2022-11-26T00:49:34.128Z,32.29
2022-11-26T00:54:41.316Z,32.04
2022-11-26T00:59:48.429Z,32.07
2022-11-26T01:04:55.705Z,32.19
2022-11-26T01:10:02.941Z,32.27
2022-11-26T01:15:10.128Z,32.24
2022-11-26T01:20:19.553Z,32.26
2022-11-26T01:25:24.581Z,32.17
2022-11-26T01:30:31.774Z,32.21
2022-11-26T01:35:39.026Z,32.19
2022-11-26T01:40:46.267Z,32.18
2022-11-26T01:45:53.530Z,32.04
2022-11-26T01:51:00.726Z,32.07
2022-11-26T01:56:08.027Z,31.89
2022-11-26T02:01:15.488Z,32.02
2022-11-26T02:06:22.617Z,32.06
2022-11-26T02:11:29.851Z,32.07
2022-11-26T02:16:37.097Z,32.00
2022-11-26T02:21:44.302Z,32.13
2022-11-26T02:26:51.559Z,32.06
2022-11-26T02:31:58.856Z,32.15
2022-11-26T02:37:06.064Z,32.30
2022-11-26T02:42:13.401Z,32.35
2022-11-26T02:47:20.725Z,32.40
2022-11-26T02:52:27.925Z,32.51
2022-11-26T02:57:35.157Z,32.49
2022-11-26T03:02:42.337Z,32.36
2022-11-26T03:07:49.654Z,32.43
2022-11-26T03:12:56.770Z,32.48
2022-11-26T03:18:04.010Z,32.50
2022-11-26T03:23:11.273Z,32.52
2022-11-26T03:28:18.516Z,32.57
2022-11-26T03:33:25.728Z,32.61
2022-11-26T03:38:33.076Z,32.76
2022-11-26T03:43:40.316Z,32.66
2022-11-26T03:48:47.489Z,32.69
2022-11-26T03:53:54.709Z,32.72
2022-11-26T03:59:01.993Z,32.74
2022-11-26T04:04:09.205Z,32.75
2022-11-26T04:09:16.416Z,32.78
2022-11-26T04:14:23.707Z,32.83
2022-11-26T04:19:30.818Z,32.87
2022-11-26T04:24:38.297Z,32.93
2022-11-26T04:29:45.257Z,32.89
2022-11-26T04:34:52.453Z,32.87
2022-11-26T04:39:59.648Z,32.97
2022-11-26T04:45:06.909Z,33.09
2022-11-26T04:50:14.755Z,33.07
2022-11-26T04:55:21.986Z,33.13
2022-11-26T05:00:29.226Z,33.12
2022-11-26T05:05:36.385Z,33.08
2022-11-26T05:10:43.575Z,32.93
2022-11-26T05:15:50.828Z,32.94
2022-11-26T05:20:58.033Z,33.06
2022-11-26T05:26:05.222Z,33.04
2022-11-26T05:31:12.573Z,33.11
2022-11-26T05:36:19.831Z,33.09
2022-11-26T05:41:27.016Z,33.21
2022-11-26T05:46:34.249Z,33.23
2022-11-26T05:51:41.426Z,33.28
2022-11-26T05:56:48.621Z,33.27
2022-11-26T06:01:55.934Z,33.28
2022-11-26T06:07:03.089Z,33.25
2022-11-26T06:12:10.252Z,33.22
2022-11-26T06:17:17.478Z,33.24
2022-11-26T06:22:24.651Z,33.22
2022-11-26T06:27:31.849Z,33.25
2022-11-26T06:32:39.063Z,33.32
2022-11-26T06:37:46.226Z,33.35
2022-11-26T06:42:53.499Z,33.36
2022-11-26T06:48:00.730Z,33.38
2022-11-26T06:53:07.927Z,33.38
2022-11-26T06:58:15.233Z,33.45
2022-11-26T07:03:25.465Z,33.49
2022-11-26T07:08:29.740Z,33.48
2022-11-26T07:13:37.770Z,33.52
2022-11-26T07:18:44.956Z,33.56
2022-11-26T07:23:52.162Z,33.58
2022-11-26T07:28:59.380Z,33.61
2022-11-26T07:34:06.733Z,33.64
2022-11-26T07:39:13.861Z,33.70
2022-11-26T07:44:21.082Z,33.68
2022-11-26T07:49:28.292Z,33.77
2022-11-26T07:54:35.879Z,33.84
2022-11-26T07:59:42.746Z,33.97
2022-11-26T08:04:50.021Z,34.00
2022-11-26T08:09:57.213Z,34.04
2022-11-26T08:15:04.422Z,34.01
2022-11-26T08:20:13.036Z,33.91
2022-11-26T08:25:20.235Z,34.17
2022-11-26T08:30:27.452Z,34.19
2022-11-26T08:36:04.869Z,33.83
2022-11-26T08:40:41.872Z,33.54
2022-11-26T08:45:49.389Z,33.32
2022-11-26T08:50:56.620Z,33.11
2022-11-26T08:56:03.858Z,32.99
2022-11-26T09:01:11.157Z,32.81
2022-11-26T09:06:18.317Z,32.61
2022-11-26T09:11:25.545Z,32.45
2022-11-26T09:16:32.805Z,32.38
2022-11-26T09:21:40.528Z,32.41
2022-11-26T09:26:47.683Z,32.36
2022-11-26T09:32:22.072Z,32.28
2022-11-26T09:37:02.144Z,32.35
2022-11-26T09:42:09.318Z,32.13
2022-11-26T09:47:16.476Z,32.24
2022-11-26T09:52:23.762Z,32.00
2022-11-26T09:57:30.972Z,31.94
2022-11-26T10:02:38.320Z,31.95
2022-11-26T10:07:45.613Z,31.88
2022-11-26T10:13:17.481Z,31.90
2022-11-26T10:17:59.919Z,31.90
2022-11-26T10:23:07.155Z,31.63
2022-11-26T10:28:14.379Z,31.66
2022-11-26T10:33:21.570Z,31.75
2022-11-26T10:38:28.801Z,31.69
2022-11-26T10:43:36.025Z,31.69
2022-11-26T10:48:43.188Z,31.62
2022-11-26T10:53:50.438Z,31.94
2022-11-26T10:58:57.612Z,31.69
2022-11-26T11:04:08.957Z,31.71
2022-11-26T11:09:11.993Z,31.71
2022-11-26T11:14:19.207Z,31.57
2022-11-26T11:19:26.359Z,31.77
2022-11-26T11:24:33.543Z,31.47
2022-11-26T11:29:40.961Z,31.35
2022-11-26T11:34:48.232Z,31.32
2022-11-26T11:39:55.460Z,32.02
2022-11-26T11:45:02.618Z,31.72
2022-11-26T11:50:09.861Z,31.94
2022-11-26T11:55:17.063Z,32.17
2022-11-26T12:00:24.225Z,32.11
2022-11-26T12:05:31.506Z,31.74
2022-11-26T12:10:38.712Z,31.62
2022-11-26T12:15:45.907Z,31.57
2022-11-26T12:20:53.111Z,31.46
2022-11-26T12:26:00.299Z,31.33
2022-11-26T12:31:07.543Z,31.34
2022-11-26T12:36:14.717Z,31.34
2022-11-26T12:41:21.917Z,31.20
2022-11-26T12:46:29.401Z,31.30
2022-11-26T12:51:36.609Z,31.28
2022-11-26T12:56:43.849Z,31.23
2022-11-26T13:01:51.054Z,31.28
2022-11-26T13:06:58.168Z,31.23
2022-11-26T13:12:05.364Z,31.40
2022-11-26T13:17:12.574Z,31.68
2022-11-26T13:22:19.824Z,31.65
2022-11-26T13:27:26.999Z,31.84
2022-11-26T13:32:34.150Z,31.95
2022-11-26T13:37:41.359Z,31.84
2022-11-26T13:42:48.561Z,31.85
2022-11-26T13:47:55.762Z,31.86
2022-11-26T13:53:03.023Z,32.07
2022-11-26T13:58:10.219Z,32.13
2022-11-26T14:03:17.575Z,31.90
2022-11-26T14:08:24.822Z,32.03
2022-11-26T14:13:32.075Z,32.08
2022-11-26T14:18:39.389Z,31.92
2022-11-26T14:23:46.647Z,31.89
2022-11-26T14:28:53.854Z,32.07
2022-11-26T14:34:01.009Z,31.99
2022-11-26T14:39:08.200Z,32.12
2022-11-26T14:44:15.410Z,32.13
2022-11-26T14:49:22.591Z,32.16
2022-11-26T14:54:29.794Z,32.15
2022-11-26T14:59:37.065Z,32.19
2022-11-26T15:04:44.249Z,32.18
2022-11-26T15:09:51.497Z,32.11
2022-11-26T15:14:58.730Z,32.00
2022-11-26T15:20:05.974Z,32.15
2022-11-26T15:25:13.191Z,32.22
2022-11-26T15:30:20.391Z,32.18
2022-11-26T15:35:27.612Z,32.07
2022-11-26T15:40:34.846Z,32.16
2022-11-26T15:45:42.164Z,32.11
2022-11-26T15:50:49.295Z,32.22
2022-11-26T15:55:56.500Z,31.74
2022-11-26T16:01:03.844Z,31.41
2022-11-26T16:06:10.901Z,31.27
2022-11-26T16:11:18.141Z,31.18
2022-11-26T16:16:25.748Z,31.08
2022-11-26T16:21:32.923Z,31.09
2022-11-26T16:26:40.441Z,30.98
2022-11-26T16:31:47.794Z,30.88
2022-11-26T16:36:54.974Z,31.06
2022-11-26T16:42:02.360Z,31.47
2022-11-26T16:47:10.001Z,30.78
2022-11-26T16:52:17.354Z,30.78
2022-11-26T16:57:24.793Z,30.65
2022-11-26T17:02:32.275Z,30.61
2022-11-26T17:07:39.424Z,30.44
2022-11-26T17:12:46.827Z,30.51
2022-11-26T17:17:54.561Z,30.39
2022-11-26T17:23:01.912Z,30.34
2022-11-26T17:28:09.150Z,30.24
2022-11-26T17:33:16.694Z,30.20
2022-11-26T17:38:24.211Z,30.60
2022-11-26T17:43:31.508Z,30.40
2022-11-26T17:48:38.823Z,30.14
2022-11-26T17:53:45.965Z,30.00
2022-11-26T17:58:53.149Z,29.76
2022-11-26T18:04:00.435Z,29.71
2022-11-26T18:09:07.601Z,29.47
2022-11-26T18:14:14.842Z,29.39
2022-11-26T18:19:22.183Z,29.21
2022-11-26T18:24:29.628Z,28.98
2022-11-26T18:29:37.337Z,28.85
2022-11-26T18:34:44.251Z,28.78
2022-11-26T18:39:51.757Z,28.39
2022-11-26T18:44:59.126Z,28.29
2022-11-26T18:50:06.392Z,28.48
2022-11-26T18:55:13.885Z,28.11
2022-11-26T19:00:21.503Z,27.91
2022-11-26T19:05:30.591Z,28.06
2022-11-26T19:10:38.159Z,27.72
2022-11-26T19:15:45.553Z,27.58
2022-11-26T19:20:53.126Z,27.70
2022-11-26T19:26:00.798Z,27.24
2022-11-26T19:31:08.448Z,27.13
2022-11-26T19:36:16.983Z,27.33
2022-11-26T19:41:25.989Z,27.55
2022-11-26T19:46:32.249Z,28.13
2022-11-26T19:51:40.376Z,28.07
2022-11-26T19:56:47.714Z,28.63
2022-11-26T20:01:55.433Z,29.13
2022-11-26T20:07:02.968Z,29.20
2022-11-26T20:12:10.559Z,28.98
2022-11-26T20:17:18.325Z,29.12
2022-11-26T20:22:28.117Z,29.27
2022-11-26T20:27:33.504Z,29.16
2022-11-26T20:32:41.227Z,28.71
2022-11-26T20:37:48.869Z,28.60
2022-11-26T20:42:56.345Z,28.63
2022-11-26T20:48:03.959Z,28.13
2022-11-26T20:53:11.607Z,27.53
2022-11-26T20:58:19.195Z,27.24
2022-11-26T21:03:26.562Z,26.79
2022-11-26T21:08:33.766Z,26.76
2022-11-26T21:13:40.902Z,26.57
2022-11-26T21:18:48.049Z,26.43
2022-11-26T21:23:55.547Z,26.73
2022-11-26T21:29:03.030Z,26.44
2022-11-26T21:34:10.364Z,26.29
2022-11-26T21:39:17.586Z,25.90
2022-11-26T21:44:25.492Z,25.91
2022-11-26T21:49:32.576Z,25.94
2022-11-26T21:54:39.792Z,26.27
2022-11-26T21:59:47.174Z,25.83
2022-11-26T22:04:54.441Z,25.80
2022-11-26T22:10:04.630Z,26.04
2022-11-26T22:15:11.767Z,26.08
2022-11-26T22:20:19.017Z,25.59
2022-11-26T22:25:26.278Z,26.59
2022-11-26T22:30:33.488Z,27.45
2022-11-26T22:35:40.690Z,27.50
2022-11-26T22:40:47.962Z,27.38
2022-11-26T22:45:55.257Z,26.79
2022-11-26T22:51:02.430Z,26.00
2022-11-26T22:56:09.641Z,25.63
2022-11-26T23:01:17.543Z,25.52
2022-11-26T23:06:24.734Z,25.46
2022-11-26T23:11:32.106Z,25.38
2022-11-26T23:16:39.364Z,25.08
2022-11-26T23:21:46.452Z,25.22
2022-11-26T23:26:53.623Z,25.04
2022-11-26T23:32:00.901Z,24.87
2022-11-26T23:37:08.072Z,24.91
2022-11-26T23:42:15.315Z,24.69
2022-11-26T23:47:22.505Z,24.47
2022-11-26T23:52:29.703Z,25.10
2022-11-26T23:57:36.915Z,25.25
